• Join FlightAware (Why Join?)
  • Login
  • US Flag 
02:31AM EST


 

Airport Tracker/Info


-or-


 

Live Flight TrackerFlight Track Log ✈ UAL33 ✈ 29-Dec-2013 ✈ RJAA / NRT - KLAX

Flight Track Log - Related Links

Times and Time Zones

All times are in EST time to prevent confusion due to time zone crossing. See the UAL33 flight status page for this flight to view local times or setup timezone preferences in your user account.

Time Position Orientation Groundspeed Altitude Reporting Facility
EST Latitude Longitude Course Direction KTS MPH feet Rate Location/Type
04:44AM 36.0215 140.8603 98° East  Level Estimated
04:45AM 35.9263 141.0097 128° Southeast  Level FlightAware Approximate
04:46AM 36.0113 141.1683 104° East  Level Estimated
04:47AM 36.0962 141.3272 98° East  Level Estimated
04:48AM 35.9896 141.4645 134° Southeast  Level FlightAware Approximate
04:49AM 36.0741 141.6236 102° East  Level Estimated
04:50AM 36.1584 141.7831 97° East  Level Estimated
04:51AM 36.2426 141.9429 103° East  Level Estimated
04:52AM 36.3265 142.1030 104° East  Level Estimated
04:53AM 36.4101 142.2635 101° East  Level Estimated
04:54AM 36.2900 142.3830 141° Southeast  Level FlightAware Approximate
04:55AM 36.1698 142.5022 141° Southeast  Level FlightAware Approximate
04:56AM 36.2531 142.6627 101° East  Level Estimated
04:57AM 36.1371 142.7882 139° Southeast  Level FlightAware Approximate
04:58AM 36.2201 142.9489 87° East  Level Estimated
04:59AM 36.1121 143.0848 135° Southeast  Level FlightAware Approximate
05:00AM 36.1948 143.2456 87° East  Level Estimated
05:01AM 36.1247 143.4154 117° Southeast  Level FlightAware Approximate
05:02AM 36.0544 143.5849 117° Southeast  Level FlightAware Approximate
05:03AM 35.9838 143.7540 117° Southeast  Level FlightAware Approximate
05:04AM 35.9130 143.9229 117° Southeast  Level FlightAware Approximate
05:05AM 35.8420 144.0915 117° Southeast  Level FlightAware Approximate
05:06AM 35.9237 144.2525 88° East  Level Estimated
05:07AM 35.8638 144.4276 113° Southeast  Level FlightAware Approximate
05:08AM 35.8037 144.6025 113° Southeast  Level FlightAware Approximate
05:09AM 35.7433 144.7770 113° Southeast  Level FlightAware Approximate
05:10AM 35.8243 144.9384 77° East  Level Estimated
05:11AM 35.7963 145.1251 100° East  Level FlightAware Approximate
05:12AM 35.7679 145.3116 101° East  Level FlightAware Approximate
05:13AM 35.7393 145.4980 101° East  Level FlightAware Approximate
05:14AM 35.7104 145.6843 101° East  Level FlightAware Approximate
05:15AM 35.7904 145.8463 78° East  Level Estimated
05:16AM 35.8031 146.0355 85° East  Level FlightAware Approximate
05:17AM 35.8155 146.2247 85° East  Level FlightAware Approximate
05:18AM 35.8276 146.4140 85° East  Level FlightAware Approximate
05:19AM 35.8394 146.6034 86° East  Level FlightAware Approximate
05:20AM 35.8509 146.7928 86° East  Level FlightAware Approximate
05:21AM 35.8621 146.9822 86° East  Level FlightAware Approximate
05:22AM 35.8730 147.1717 86° East  Level FlightAware Approximate
05:23AM 35.8836 147.3613 86° East  Level FlightAware Approximate
05:24AM 35.8939 147.5509 86° East  Level FlightAware Approximate
05:25AM 35.9039 147.7406 86° East  Level FlightAware Approximate
05:26AM 35.9136 147.9303 86° East  Level FlightAware Approximate
05:27AM 35.9230 148.1200 86° East  Level FlightAware Approximate
05:28AM 35.9321 148.3098 87° East  Level FlightAware Approximate
05:29AM 35.9409 148.4997 87° East  Level FlightAware Approximate
05:30AM 35.9494 148.6895 87° East  Level FlightAware Approximate
05:31AM 36.0261 148.8546 80° East  Level Estimated
05:32AM 36.0372 149.0444 86° East  Level FlightAware Approximate
05:33AM 36.0480 149.2344 86° East  Level FlightAware Approximate
05:34AM 36.0585 149.4244 86° East  Level FlightAware Approximate
05:35AM 36.0687 149.6144 86° East  Level FlightAware Approximate
05:36AM 36.1443 149.7804 81° East  Level Estimated
05:37AM 36.1650 149.9694 82° East  Level FlightAware Approximate
05:38AM 36.1853 150.1584 82° East  Level FlightAware Approximate
05:39AM 36.2054 150.3476 82° East  Level FlightAware Approximate
05:40AM 36.2251 150.5368 83° East  Level FlightAware Approximate
05:41AM 36.2446 150.7262 83° East  Level FlightAware Approximate
05:42AM 36.2637 150.9156 83° East  Level FlightAware Approximate
05:43AM 36.2826 151.1051 83° East  Level FlightAware Approximate
05:44AM 36.3011 151.2948 83° East  Level FlightAware Approximate
05:45AM 36.3194 151.4845 83° East  Level FlightAware Approximate
05:46AM 36.3374 151.6743 83° East  Level FlightAware Approximate
05:47AM 36.3550 151.8642 83° East  Level FlightAware Approximate
05:48AM 36.3724 152.0541 83° East  Level FlightAware Approximate
05:49AM 36.3894 152.2442 84° East  Level FlightAware Approximate
05:50AM 36.4062 152.4343 84° East  Level FlightAware Approximate
05:51AM 36.4226 152.6245 84° East  Level FlightAware Approximate
05:52AM 36.4388 152.8148 84° East  Level FlightAware Approximate
05:53AM 36.4546 153.0052 84° East  Level FlightAware Approximate
05:54AM 36.4703 153.1968 84° East  Level FlightAware Approximate
05:55AM 36.4856 153.3884 84° East  Level FlightAware Approximate
05:56AM 36.5006 153.5801 84° East  Level FlightAware Approximate
05:57AM 36.5720 153.7511 83° East  Level Estimated
05:58AM 36.5901 153.9426 83° East  Level FlightAware Approximate
05:59AM 36.6078 154.1342 83° East  Level FlightAware Approximate
06:00AM 36.6253 154.3259 83° East  Level FlightAware Approximate
06:01AM 36.6424 154.5177 84° East  Level FlightAware Approximate
06:02AM 36.6592 154.7095 84° East  Level FlightAware Approximate
06:03AM 36.6758 154.9014 84° East  Level FlightAware Approximate
06:04AM 36.6920 155.0935 84° East  Level FlightAware Approximate
06:05AM 36.7079 155.2856 84° East  Level FlightAware Approximate
06:06AM 36.7235 155.4778 84° East  Level FlightAware Approximate
06:07AM 36.7388 155.6700 84° East  Level FlightAware Approximate
06:08AM 36.7538 155.8623 84° East  Level FlightAware Approximate
06:09AM 36.7684 156.0547 85° East  Level FlightAware Approximate
06:10AM 36.7828 156.2472 85° East  Level FlightAware Approximate
06:11AM 36.7968 156.4398 85° East  Level FlightAware Approximate
06:12AM 36.8106 156.6324 85° East  Level FlightAware Approximate
06:13AM 36.8240 156.8251 85° East  Level FlightAware Approximate
06:14AM 36.8371 157.0179 85° East  Level FlightAware Approximate
06:15AM 36.8499 157.2107 85° East  Level FlightAware Approximate
06:16AM 36.8624 157.4035 85° East  Level FlightAware Approximate
06:17AM 36.8746 157.5965 85° East  Level FlightAware Approximate
06:18AM 36.8865 157.7895 86° East  Level FlightAware Approximate
06:19AM 36.8981 157.9826 86° East  Level FlightAware Approximate
06:20AM 36.9093 158.1757 86° East  Level FlightAware Approximate
06:21AM 36.9202 158.3689 86° East  Level FlightAware Approximate
06:22AM 36.9309 158.5621 86° East  Level FlightAware Approximate
06:23AM 36.9412 158.7554 86° East  Level FlightAware Approximate
06:24AM 37.0065 158.9311 73° East  Level Estimated
06:25AM 37.0461 159.1186 75° East  Level FlightAware Approximate
06:26AM 37.0854 159.3063 75° East  Level FlightAware Approximate
06:27AM 37.1244 159.4942 75° East  Level FlightAware Approximate
06:28AM 37.1630 159.6823 75° East  Level FlightAware Approximate
06:29AM 37.2014 159.8706 76° East  Level FlightAware Approximate
06:30AM 37.2395 160.0591 76° East  Level FlightAware Approximate
06:31AM 37.2773 160.2477 76° East  Level FlightAware Approximate
06:32AM 37.3148 160.4366 76° East  Level FlightAware Approximate
06:33AM 37.3520 160.6256 76° East  Level FlightAware Approximate
06:34AM 37.3889 160.8148 76° East  Level FlightAware Approximate
06:35AM 37.4254 161.0043 76° East  Level FlightAware Approximate
06:36AM 37.4617 161.1939 76° East  Level FlightAware Approximate
06:37AM 37.4977 161.3836 77° East  Level FlightAware Approximate
06:38AM 37.5334 161.5736 77° East  Level FlightAware Approximate
06:39AM 37.5687 161.7637 77° East  Level FlightAware Approximate
06:40AM 37.6038 161.9541 77° East  Level FlightAware Approximate
06:41AM 37.6385 162.1446 77° East  Level FlightAware Approximate
06:42AM 37.6730 162.3352 77° East  Level FlightAware Approximate
06:43AM 37.7071 162.5261 77° East  Level FlightAware Approximate
06:44AM 37.7410 162.7171 77° East  Level FlightAware Approximate
06:45AM 37.7745 162.9083 77° East  Level FlightAware Approximate
06:46AM 37.8077 163.0997 78° East  Level FlightAware Approximate
06:47AM 37.8406 163.2912 78° East  Level FlightAware Approximate
06:48AM 37.8732 163.4830 78° East  Level FlightAware Approximate
06:48AM 38.6167 167.6500 77° East 687 791 39,000  Level Oakland Oceanic (ODAPS)
06:58AM 39.0000 170.0000 72° East 661 761 39,000  Level Oakland Oceanic (ODAPS)
07:02AM 39.2167 170.8833 73° East 645 742 39,000  Level Oakland Oceanic (ODAPS)
07:16AM 39.9167 173.9667 75° East 641 738 39,000  Level Oakland Oceanic (ODAPS)
07:30AM 40.5000 177.0167 77° East 619 712 39,000  Level Oakland Oceanic (ODAPS)
07:44AM 41.0000 180.0000 79° East 603 694 39,000  Level Oakland Oceanic (ODAPS)
07:44AM 41.0000 -179.9667 79° East 595 685 39,000 60 Level Oakland Oceanic (ODAPS)
07:58AM 41.4000 -177.0000 81° East 591 680 40,000  Climbing Oakland Oceanic (ODAPS)
08:11AM 41.7000 -174.0333 83° East 578 665 40,000  Level Oakland Oceanic (ODAPS)
08:25AM 41.9333 -171.1167 85° East 574 661 40,000  Level Oakland Oceanic (ODAPS)
08:31AM 42.0000 -170.0000 87° East 567 652 40,000  Level Oakland Oceanic (ODAPS)
08:39AM 42.0667 -168.2000 88° East 558 642 40,000  Level Oakland Oceanic (ODAPS)
08:53AM 42.1000 -165.3500 90° East 544 626 40,000  Level Oakland Oceanic (ODAPS)
09:07AM 42.0833 -162.5833 92° East 536 617 40,000  Level Oakland Oceanic (ODAPS)
09:20AM 42.0000 -160.0000 87° East 525 604 40,000  Level Oakland Oceanic (ODAPS)
09:21AM 42.0082 -159.8081 87° East 536 617 40,000  Level FlightAware Transoceanic
09:21AM 42.0000 -159.8833 87° East 520 598 40,000  Level Oakland Oceanic (ODAPS)
09:35AM 42.0833 -157.2000 88° East 521 600 40,000  Level Oakland Oceanic (ODAPS)
09:49AM 42.1000 -154.5333 90° East 520 598 40,000  Level Oakland Oceanic (ODAPS)
10:02AM 42.0667 -151.8500 92° East 519 597 40,600  Climbing Oakland Oceanic (ODAPS)
10:12AM 42.0000 -150.0000 94° East 509 586 41,000  Climbing Oakland Oceanic (ODAPS)
10:16AM 41.9667 -149.3167 95° East 509 586 41,000  Level Oakland Oceanic (ODAPS)
10:16AM 41.9500 -149.2000 95° East 503 579 41,000  Level Oakland Oceanic (ODAPS)
10:30AM 41.7667 -146.6000 97° East 510 587 41,000  Level Oakland Oceanic (ODAPS)
10:44AM 41.5167 -144.0167 98° East 509 586 41,000  Level Oakland Oceanic (ODAPS)
10:58AM 41.2000 -141.4500 100° East 501 577 41,000  Level Oakland Oceanic (ODAPS)
11:06AM 41.0000 -140.0000 101° East 501 577 41,000  Level Oakland Oceanic (ODAPS)
11:12AM 40.8333 -138.9667 102° East 503 579 41,000  Level Oakland Oceanic (ODAPS)
11:26AM 40.4167 -136.5000 104° East 502 578 41,000  Level Oakland Oceanic (ODAPS)
11:39AM 39.9333 -134.0333 105° East 505 581 41,000  Level Oakland Oceanic (ODAPS)
11:53AM 39.4000 -131.6333 107° East 501 577 41,000  Level Oakland Oceanic (ODAPS)
12:03PM 39.0000 -130.0000 102° East 504 580 41,000  Level Oakland Oceanic (ODAPS)
12:07PM 38.8667 -129.2500 102° East 506 582 41,000  Level Oakland Oceanic (ODAPS)
12:07PM 38.8667 -129.1833 103° East 505 581 41,000  Level Oakland Oceanic (ODAPS)
12:17PM 38.5533 -127.4953 111° Southeast 498 573 41,000  Level Oakland Center
12:18PM 38.5361 -127.3622 104° East 505 581 41,000  Level FlightAware Transoceanic
12:18PM 38.5233 -127.3217 102° East 500 575 41,000  Level Oakland Center
12:19PM 38.5015 -127.1810 104° East 505 581 41,000 -120 Level FlightAware Transoceanic
12:19PM 38.4933 -127.1500 103° East 500 575 40,900  Descending Oakland Center
12:20PM 38.4667 -127.0000 111° Southeast 505 581 41,000 60 Climbing FlightAware Transoceanic
12:20PM 38.4608 -126.9772 103° East 502 578 41,000  Level Oakland Center
12:21PM 38.4158 -126.8324 111° Southeast 505 581 41,000  Level FlightAware Transoceanic
12:21PM 38.4092 -126.8114 112° Southeast 503 579 41,000  Level Oakland Center
12:22PM 38.3646 -126.6650 111° Southeast 505 581 41,000  Level FlightAware Transoceanic
12:22PM 38.3500 -126.6478 115° Southeast 508 585 41,000  Level Oakland Center
12:23PM 38.3132 -126.4979 111° Southeast 505 581 41,000 -120 Level FlightAware Transoceanic
12:23PM 38.2792 -126.4550 115° Southeast 505 581 40,900 -60 Descending Oakland Center
12:24PM 38.2200 -126.2950 115° Southeast 503 579 40,900  Level Oakland Center
12:25PM 38.1689 -126.1533 115° Southeast 500 575 40,900  Level Oakland Center
12:26PM 38.1097 -125.9950 115° Southeast 498 573 40,900  Level Oakland Center
12:27PM 38.0517 -125.8369 115° Southeast 496 571 40,900  Level Oakland Center
12:29PM 37.9800 -125.6478 116° Southeast 497 572 41,000  Climbing Oakland Center
12:30PM 37.9203 -125.4900 116° Southeast 497 572 41,000  Level Oakland Center
12:31PM 37.8606 -125.3317 115° Southeast 500 575 41,000  Level Oakland Center
12:32PM 37.7992 -125.1739 116° Southeast 502 578 41,000  Level Oakland Center
12:33PM 37.7411 -125.0167 115° Southeast 497 572 41,000 -60 Level Oakland Center
12:34PM 37.6811 -124.8592 116° Southeast 499 574 40,900 -60 Descending Oakland Center
12:35PM 37.6192 -124.7033 117° Southeast 499 574 40,900  Level Oakland Center
12:36PM 37.5572 -124.5464 116° Southeast 501 577 41,000  Climbing Oakland Center
12:37PM 37.4958 -124.3897 116° Southeast 502 578 40,900  Descending Oakland Center
12:38PM 37.4353 -124.2331 116° Southeast 500 575 41,000  Climbing Oakland Center
12:39PM 37.3617 -124.0439 116° Southeast 503 579 40,900  Descending Oakland Center
12:40PM 37.2972 -123.8867 117° Southeast 506 582 41,000 -60 Climbing Oakland Center
12:46PM 36.8907 -122.8770 117° Southeast 503 579 40,500 -240 Descending FlightAware ADS-B
12:47PM 36.8402 -122.7540 117° Southeast 506 582 39,300 -1,200 Descending FlightAware ADS-B
12:48PM 36.7733 -122.5920 117° Southeast 507 583 38,300 -1,080 Descending FlightAware ADS-B
12:49PM 36.7113 -122.4420 117° Southeast 492 566 37,200 -1,260 Descending FlightAware ADS-B
12:49PM 36.6798 -122.3660 117° Southeast 492 566 36,500 -1,320 Descending FlightAware ADS-B
12:50PM 36.6431 -122.2790 118° Southeast 492 566 35,800 -1,320 Descending FlightAware ADS-B
12:52PM 36.5238 -121.9940 117° Southeast 489 563 33,300 -1,320 Descending FlightAware ADS-B
12:53PM 36.4791 -121.8890 118° Southeast 485 558 32,400 -1,260 Descending FlightAware ADS-B
12:56PM 36.2661 -121.3900 118° Southeast 489 563 28,200 -1,200 Descending FlightAware ADS-B
12:57PM 36.2181 -121.2822 118° Southeast 472 543 27,300 -1,080 Descending Oakland Center
12:58PM 36.1575 -121.1411 118° Southeast 467 537 26,200 -1,140 Descending Oakland Center
12:59PM 36.0981 -121.0025 118° Southeast 459 528 25,100 -600 Descending Oakland Center
01:00PM 36.0383 -120.8658 118° Southeast 454 522 25,000 -120 Descending Oakland Center
01:01PM 35.9786 -120.7294 118° Southeast 451 519 24,900  Descending Oakland Center
01:02PM 35.9189 -120.5917 118° Southeast 453 521 25,000  Climbing Oakland Center
01:03PM 35.8583 -120.4536 118° Southeast 455 524 24,900 -60 Descending Oakland Center
01:04PM 35.7975 -120.3169 119° Southeast 453 521 24,900  Level Oakland Center
01:05PM 35.7369 -120.1800 119° Southeast 453 521 25,000  Climbing Oakland Center
01:06PM 35.6758 -120.0439 119° Southeast 451 519 25,000 -60 Level Oakland Center
01:07PM 35.6114 -119.9464 129° Southeast 459 528 24,900 -60 Descending Los Angeles Center
01:08PM 35.5036 -119.8544 145° Southeast 466 536 24,900  Level Los Angeles Center
01:09PM 35.3972 -119.7619 145° Southeast 466 536 25,000 -120 Climbing Los Angeles Center
01:10PM 35.3128 -119.6889 145° Southeast 464 534 24,700 -840 Descending Los Angeles Center
01:11PM 35.1875 -119.5825 145° Southeast 458 527 23,300 -1,320 Descending Los Angeles Center
01:12PM 35.0869 -119.4969 145° Southeast 447 514 22,000 -1,200 Descending Los Angeles Center
01:13PM 34.9667 -119.3958 145° Southeast 440 506 20,900 -540 Descending Los Angeles Center
01:14PM 34.8672 -119.3094 145° Southeast 438 504 21,000  Climbing Los Angeles Center
01:15PM 34.7867 -119.2417 145° Southeast 440 506 21,000 -240 Level Los Angeles Center
01:16PM 34.6661 -119.1408 145° Southeast 438 504 20,500 -1,200 Descending Los Angeles Center
01:22PM 34.1090 -118.9036 145° Southeast 325 374 13,000 -1,200 Descending FlightAware ADS-B
01:26PM 34.0191 -118.5512 107° East 270 311 8,700 -1,080 Descending FlightAware ADS-B
01:26PM 34.0159 -118.5173 96° East 248 285 8,200 -1,080 Descending FlightAware ADS-B
01:27PM 34.0114 -118.4676 96° East 216 249 7,600 -1,140 Descending FlightAware ADS-B
01:28PM 34.0131 -118.4425 85° East 188 216 7,000 -2,100 Descending FlightAware ADS-B
01:28PM 34.0201 -118.4013 78° East 207 238 5,500 -1,920 Descending FlightAware ADS-B
01:29PM 34.0333 -118.3333 78° East 202 232 3,800 -1,200 Descending Southern California TRACON
01:30PM 34.0333 -118.2500 90° East 197 227 3,000 -420 Descending Southern California TRACON
01:31PM 34.0500 -118.2000 68° East 200 230 3,000 -60 Level Southern California TRACON
01:32PM 34.0500 -118.1333 90° East 212 244 2,900 -240 Descending Southern California TRACON
01:33PM 34.0000 -118.1167 165° South 192 221 2,600 -240 Descending Southern California TRACON
01:34PM 33.9833 -118.1500 239° Southwest 188 216 2,500 -60 Descending Southern California TRACON
01:35PM 33.9667 -118.2167 253° West 180 207 2,500  Level Southern California TRACON
01:36PM 33.9675 -118.2389 273° West 182 209 2,500 -360 Level Los Angeles Center
01:37PM 33.9619 -118.2906 263° West 169 194 2,000 -600 Descending Los Angeles Center
01:38PM 33.9581 -118.3367 264° West 153 176 1,300 -780 Descending Los Angeles Center
01:39PM 33.9533 -118.3828 263° West 144 166 500 -540 Descending Los Angeles Center
01:40PM 33.9475 -118.4386 263° West 144 166 200 -300 Descending Los Angeles Center